sensor_id;sensor_type;location;lat;lon;timestamp;P1;durP1;ratioP1;P2;durP2;ratioP2
11189;SDS011;5651;50.926;4.718;2022-12-07T00:01:19;26.65;;;17.88;;
11189;SDS011;5651;50.926;4.718;2022-12-07T00:03:47;30.50;;;18.35;;
11189;SDS011;5651;50.926;4.718;2022-12-07T00:06:14;30.50;;;17.70;;
11189;SDS011;5651;50.926;4.718;2022-12-07T00:08:42;29.88;;;19.92;;
11189;SDS011;5651;50.926;4.718;2022-12-07T00:11:10;28.33;;;18.23;;
11189;SDS011;5651;50.926;4.718;2022-12-07T00:13:38;29.98;;;17.42;;
11189;SDS011;5651;50.926;4.718;2022-12-07T00:16:37;28.38;;;16.42;;
11189;SDS011;5651;50.926;4.718;2022-12-07T00:18:57;29.25;;;17.60;;
11189;SDS011;5651;50.926;4.718;2022-12-07T00:21:27;26.70;;;18.33;;
11189;SDS011;5651;50.926;4.718;2022-12-07T00:23:54;33.88;;;17.98;;
11189;SDS011;5651;50.926;4.718;2022-12-07T00:26:22;26.90;;;17.02;;
11189;SDS011;5651;50.926;4.718;2022-12-07T00:28:50;30.25;;;17.77;;
11189;SDS011;5651;50.926;4.718;2022-12-07T00:31:18;28.15;;;17.55;;
11189;SDS011;5651;50.926;4.718;2022-12-07T00:33:45;35.65;;;19.85;;
11189;SDS011;5651;50.926;4.718;2022-12-07T00:36:13;30.83;;;18.58;;
11189;SDS011;5651;50.926;4.718;2022-12-07T00:38:41;29.52;;;18.17;;
11189;SDS011;5651;50.926;4.718;2022-12-07T00:41:10;26.85;;;17.70;;
11189;SDS011;5651;50.926;4.718;2022-12-07T00:43:41;34.25;;;19.40;;
11189;SDS011;5651;50.926;4.718;2022-12-07T00:46:07;28.73;;;19.25;;
11189;SDS011;5651;50.926;4.718;2022-12-07T00:48:33;34.92;;;20.55;;
11189;SDS011;5651;50.926;4.718;2022-12-07T00:50:59;32.60;;;20.50;;
11189;SDS011;5651;50.926;4.718;2022-12-07T00:53:26;33.10;;;20.55;;
11189;SDS011;5651;50.926;4.718;2022-12-07T00:55:52;34.92;;;20.27;;
11189;SDS011;5651;50.926;4.718;2022-12-07T00:58:19;38.03;;;21.77;;
11189;SDS011;5651;50.926;4.718;2022-12-07T01:00:45;37.72;;;22.33;;
11189;SDS011;5651;50.926;4.718;2022-12-07T01:03:12;39.53;;;21.23;;
11189;SDS011;5651;50.926;4.718;2022-12-07T01:05:39;33.28;;;20.85;;
11189;SDS011;5651;50.926;4.718;2022-12-07T01:08:05;35.88;;;22.75;;
11189;SDS011;5651;50.926;4.718;2022-12-07T01:10:32;37.50;;;22.95;;
11189;SDS011;5651;50.926;4.718;2022-12-07T01:12:58;37.63;;;21.92;;
11189;SDS011;5651;50.926;4.718;2022-12-07T01:15:25;38.97;;;23.45;;
11189;SDS011;5651;50.926;4.718;2022-12-07T01:17:51;40.35;;;23.80;;
11189;SDS011;5651;50.926;4.718;2022-12-07T01:20:17;36.30;;;22.02;;
11189;SDS011;5651;50.926;4.718;2022-12-07T01:22:43;35.60;;;22.90;;
11189;SDS011;5651;50.926;4.718;2022-12-07T01:25:09;40.70;;;23.48;;
11189;SDS011;5651;50.926;4.718;2022-12-07T01:27:36;38.88;;;23.90;;
11189;SDS011;5651;50.926;4.718;2022-12-07T01:30:02;37.00;;;23.85;;
11189;SDS011;5651;50.926;4.718;2022-12-07T01:32:30;41.72;;;23.83;;
11189;SDS011;5651;50.926;4.718;2022-12-07T01:34:55;40.50;;;24.73;;
11189;SDS011;5651;50.926;4.718;2022-12-07T01:37:21;41.38;;;24.92;;
11189;SDS011;5651;50.926;4.718;2022-12-07T01:39:50;46.67;;;26.45;;
11189;SDS011;5651;50.926;4.718;2022-12-07T01:42:16;47.05;;;27.60;;
11189;SDS011;5651;50.926;4.718;2022-12-07T01:47:43;48.13;;;26.70;;
11189;SDS011;5651;50.926;4.718;2022-12-07T01:50:13;47.38;;;27.95;;
11189;SDS011;5651;50.926;4.718;2022-12-07T01:52:39;47.75;;;27.23;;
11189;SDS011;5651;50.926;4.718;2022-12-07T01:55:10;46.13;;;28.20;;
11189;SDS011;5651;50.926;4.718;2022-12-07T01:57:40;51.57;;;29.13;;
11189;SDS011;5651;50.926;4.718;2022-12-07T02:00:08;48.88;;;28.88;;
11189;SDS011;5651;50.926;4.718;2022-12-07T02:02:37;51.10;;;27.70;;
11189;SDS011;5651;50.926;4.718;2022-12-07T02:05:07;49.05;;;29.30;;
11189;SDS011;5651;50.926;4.718;2022-12-07T02:07:34;43.42;;;26.25;;
11189;SDS011;5651;50.926;4.718;2022-12-07T02:10:12;43.60;;;27.45;;
11189;SDS011;5651;50.926;4.718;2022-12-07T02:12:54;45.35;;;27.05;;
11189;SDS011;5651;50.926;4.718;2022-12-07T02:15:26;44.35;;;26.80;;
11189;SDS011;5651;50.926;4.718;2022-12-07T02:20:47;42.15;;;24.98;;
11189;SDS011;5651;50.926;4.718;2022-12-07T02:29:21;40.58;;;24.60;;
11189;SDS011;5651;50.926;4.718;2022-12-07T02:31:51;36.42;;;23.42;;
11189;SDS011;5651;50.926;4.718;2022-12-07T02:34:47;42.75;;;24.25;;
11189;SDS011;5651;50.926;4.718;2022-12-07T02:37:21;41.17;;;23.30;;
11189;SDS011;5651;50.926;4.718;2022-12-07T02:39:55;37.83;;;24.02;;
11189;SDS011;5651;50.926;4.718;2022-12-07T02:42:32;42.60;;;24.17;;
11189;SDS011;5651;50.926;4.718;2022-12-07T02:45:02;41.92;;;23.80;;
11189;SDS011;5651;50.926;4.718;2022-12-07T02:47:29;42.05;;;23.95;;
11189;SDS011;5651;50.926;4.718;2022-12-07T02:49:59;43.67;;;25.58;;
11189;SDS011;5651;50.926;4.718;2022-12-07T02:52:25;48.17;;;26.90;;
11189;SDS011;5651;50.926;4.718;2022-12-07T02:54:51;43.15;;;26.15;;
11189;SDS011;5651;50.926;4.718;2022-12-07T03:00:08;42.58;;;24.67;;
11189;SDS011;5651;50.926;4.718;2022-12-07T03:16:01;44.00;;;23.95;;
11189;SDS011;5651;50.926;4.718;2022-12-07T03:18:38;44.88;;;25.70;;
11189;SDS011;5651;50.926;4.718;2022-12-07T03:21:09;49.33;;;26.33;;
11189;SDS011;5651;50.926;4.718;2022-12-07T03:23:39;44.78;;;26.33;;
11189;SDS011;5651;50.926;4.718;2022-12-07T03:26:08;47.95;;;25.35;;
11189;SDS011;5651;50.926;4.718;2022-12-07T03:28:40;44.58;;;25.23;;
11189;SDS011;5651;50.926;4.718;2022-12-07T03:33:54;44.85;;;25.30;;
11189;SDS011;5651;50.926;4.718;2022-12-07T03:36:49;43.58;;;25.83;;
11189;SDS011;5651;50.926;4.718;2022-12-07T03:39:41;44.47;;;25.63;;
11189;SDS011;5651;50.926;4.718;2022-12-07T03:42:16;48.42;;;27.02;;
11189;SDS011;5651;50.926;4.718;2022-12-07T03:44:42;45.67;;;25.73;;
11189;SDS011;5651;50.926;4.718;2022-12-07T03:47:12;47.80;;;26.30;;
11189;SDS011;5651;50.926;4.718;2022-12-07T03:49:47;44.95;;;27.45;;
11189;SDS011;5651;50.926;4.718;2022-12-07T03:52:33;44.72;;;26.23;;
11189;SDS011;5651;50.926;4.718;2022-12-07T03:55:09;42.85;;;23.70;;
11189;SDS011;5651;50.926;4.718;2022-12-07T03:57:43;39.25;;;24.33;;
11189;SDS011;5651;50.926;4.718;2022-12-07T04:00:12;39.67;;;23.83;;
11189;SDS011;5651;50.926;4.718;2022-12-07T04:02:39;44.05;;;24.50;;
11189;SDS011;5651;50.926;4.718;2022-12-07T04:05:06;41.55;;;24.50;;
11189;SDS011;5651;50.926;4.718;2022-12-07T04:07:32;41.15;;;24.23;;
11189;SDS011;5651;50.926;4.718;2022-12-07T04:09:58;41.03;;;24.10;;
11189;SDS011;5651;50.926;4.718;2022-12-07T04:12:23;46.60;;;24.58;;
11189;SDS011;5651;50.926;4.718;2022-12-07T04:14:49;45.10;;;24.13;;
11189;SDS011;5651;50.926;4.718;2022-12-07T04:17:15;44.10;;;24.88;;
11189;SDS011;5651;50.926;4.718;2022-12-07T04:19:40;36.58;;;23.90;;
11189;SDS011;5651;50.926;4.718;2022-12-07T04:22:06;44.60;;;23.67;;
11189;SDS011;5651;50.926;4.718;2022-12-07T04:24:33;48.00;;;22.70;;
11189;SDS011;5651;50.926;4.718;2022-12-07T04:26:59;39.70;;;22.40;;
11189;SDS011;5651;50.926;4.718;2022-12-07T04:29:25;35.35;;;22.85;;
11189;SDS011;5651;50.926;4.718;2022-12-07T04:31:51;38.80;;;22.13;;
11189;SDS011;5651;50.926;4.718;2022-12-07T04:34:17;45.10;;;24.33;;
11189;SDS011;5651;50.926;4.718;2022-12-07T04:36:43;38.20;;;21.80;;
11189;SDS011;5651;50.926;4.718;2022-12-07T04:39:23;45.38;;;24.75;;
11189;SDS011;5651;50.926;4.718;2022-12-07T04:41:56;41.85;;;24.45;;
11189;SDS011;5651;50.926;4.718;2022-12-07T04:44:23;47.53;;;25.88;;
11189;SDS011;5651;50.926;4.718;2022-12-07T04:46:50;46.95;;;24.50;;
11189;SDS011;5651;50.926;4.718;2022-12-07T04:49:17;45.15;;;25.15;;
11189;SDS011;5651;50.926;4.718;2022-12-07T04:51:43;50.88;;;25.92;;
11189;SDS011;5651;50.926;4.718;2022-12-07T04:54:09;53.40;;;28.40;;
11189;SDS011;5651;50.926;4.718;2022-12-07T04:56:36;43.85;;;24.98;;
11189;SDS011;5651;50.926;4.718;2022-12-07T04:59:02;45.03;;;26.30;;
11189;SDS011;5651;50.926;4.718;2022-12-07T05:01:29;47.75;;;25.10;;
11189;SDS011;5651;50.926;4.718;2022-12-07T05:03:55;45.50;;;25.33;;
11189;SDS011;5651;50.926;4.718;2022-12-07T05:06:20;45.80;;;24.55;;
11189;SDS011;5651;50.926;4.718;2022-12-07T05:08:46;46.00;;;24.58;;
11189;SDS011;5651;50.926;4.718;2022-12-07T05:11:12;43.25;;;23.73;;
11189;SDS011;5651;50.926;4.718;2022-12-07T05:13:57;42.42;;;23.05;;
11189;SDS011;5651;50.926;4.718;2022-12-07T05:16:22;39.72;;;22.42;;
11189;SDS011;5651;50.926;4.718;2022-12-07T05:18:48;53.17;;;24.23;;
11189;SDS011;5651;50.926;4.718;2022-12-07T05:21:14;47.25;;;23.45;;
11189;SDS011;5651;50.926;4.718;2022-12-07T05:23:40;43.22;;;22.80;;
11189;SDS011;5651;50.926;4.718;2022-12-07T05:26:05;43.20;;;23.08;;
11189;SDS011;5651;50.926;4.718;2022-12-07T05:28:31;49.92;;;25.65;;
11189;SDS011;5651;50.926;4.718;2022-12-07T05:30:57;53.50;;;28.60;;
11189;SDS011;5651;50.926;4.718;2022-12-07T05:33:22;56.30;;;29.17;;
11189;SDS011;5651;50.926;4.718;2022-12-07T05:35:48;54.08;;;28.02;;
11189;SDS011;5651;50.926;4.718;2022-12-07T05:38:14;51.60;;;28.08;;
11189;SDS011;5651;50.926;4.718;2022-12-07T05:40:39;55.88;;;29.63;;
11189;SDS011;5651;50.926;4.718;2022-12-07T05:43:05;46.40;;;26.60;;
11189;SDS011;5651;50.926;4.718;2022-12-07T05:45:31;57.97;;;26.48;;
11189;SDS011;5651;50.926;4.718;2022-12-07T05:47:56;50.53;;;26.75;;
11189;SDS011;5651;50.926;4.718;2022-12-07T05:50:22;49.38;;;26.38;;
11189;SDS011;5651;50.926;4.718;2022-12-07T05:52:48;47.03;;;26.08;;
11189;SDS011;5651;50.926;4.718;2022-12-07T05:55:14;57.42;;;26.60;;
11189;SDS011;5651;50.926;4.718;2022-12-07T05:57:39;48.65;;;24.27;;
11189;SDS011;5651;50.926;4.718;2022-12-07T06:00:25;51.67;;;25.45;;
11189;SDS011;5651;50.926;4.718;2022-12-07T06:02:50;47.58;;;24.48;;
11189;SDS011;5651;50.926;4.718;2022-12-07T06:05:16;47.25;;;25.65;;
11189;SDS011;5651;50.926;4.718;2022-12-07T06:07:42;58.60;;;25.80;;
11189;SDS011;5651;50.926;4.718;2022-12-07T06:10:07;50.25;;;25.85;;
11189;SDS011;5651;50.926;4.718;2022-12-07T06:12:33;48.05;;;25.88;;
11189;SDS011;5651;50.926;4.718;2022-12-07T06:14:59;51.83;;;26.67;;
11189;SDS011;5651;50.926;4.718;2022-12-07T06:17:25;51.35;;;25.20;;
11189;SDS011;5651;50.926;4.718;2022-12-07T06:19:50;46.58;;;24.63;;
11189;SDS011;5651;50.926;4.718;2022-12-07T06:22:16;59.88;;;26.67;;
11189;SDS011;5651;50.926;4.718;2022-12-07T06:24:42;42.75;;;24.13;;
11189;SDS011;5651;50.926;4.718;2022-12-07T06:27:08;48.25;;;26.92;;
11189;SDS011;5651;50.926;4.718;2022-12-07T06:29:35;49.08;;;25.73;;
11189;SDS011;5651;50.926;4.718;2022-12-07T06:32:00;47.67;;;25.42;;
11189;SDS011;5651;50.926;4.718;2022-12-07T06:34:26;50.72;;;24.98;;
11189;SDS011;5651;50.926;4.718;2022-12-07T06:36:52;48.20;;;24.63;;
11189;SDS011;5651;50.926;4.718;2022-12-07T06:39:29;50.33;;;24.42;;
11189;SDS011;5651;50.926;4.718;2022-12-07T06:41:55;45.67;;;23.42;;
11189;SDS011;5651;50.926;4.718;2022-12-07T06:44:21;43.17;;;24.95;;
11189;SDS011;5651;50.926;4.718;2022-12-07T06:46:47;51.58;;;26.67;;
11189;SDS011;5651;50.926;4.718;2022-12-07T06:49:14;49.95;;;25.35;;
11189;SDS011;5651;50.926;4.718;2022-12-07T06:51:40;43.38;;;23.10;;
11189;SDS011;5651;50.926;4.718;2022-12-07T06:54:12;46.42;;;23.20;;
11189;SDS011;5651;50.926;4.718;2022-12-07T06:56:39;43.17;;;23.65;;
11189;SDS011;5651;50.926;4.718;2022-12-07T06:59:05;43.00;;;23.40;;
11189;SDS011;5651;50.926;4.718;2022-12-07T07:01:32;52.15;;;25.45;;
11189;SDS011;5651;50.926;4.718;2022-12-07T07:03:59;46.65;;;26.15;;
11189;SDS011;5651;50.926;4.718;2022-12-07T07:06:25;50.63;;;25.10;;
11189;SDS011;5651;50.926;4.718;2022-12-07T07:08:51;46.20;;;24.45;;
11189;SDS011;5651;50.926;4.718;2022-12-07T07:11:17;53.13;;;25.88;;
11189;SDS011;5651;50.926;4.718;2022-12-07T07:13:43;52.15;;;25.27;;
11189;SDS011;5651;50.926;4.718;2022-12-07T07:16:10;45.58;;;24.50;;
11189;SDS011;5651;50.926;4.718;2022-12-07T07:18:36;43.88;;;25.38;;
11189;SDS011;5651;50.926;4.718;2022-12-07T07:21:02;44.08;;;25.13;;
11189;SDS011;5651;50.926;4.718;2022-12-07T07:23:28;46.63;;;24.77;;
11189;SDS011;5651;50.926;4.718;2022-12-07T07:25:54;48.22;;;24.88;;
11189;SDS011;5651;50.926;4.718;2022-12-07T07:28:20;44.72;;;23.55;;
11189;SDS011;5651;50.926;4.718;2022-12-07T07:30:46;44.47;;;23.90;;
11189;SDS011;5651;50.926;4.718;2022-12-07T07:33:12;43.10;;;23.65;;
11189;SDS011;5651;50.926;4.718;2022-12-07T07:35:38;47.15;;;23.65;;
11189;SDS011;5651;50.926;4.718;2022-12-07T07:38:04;47.85;;;24.02;;
11189;SDS011;5651;50.926;4.718;2022-12-07T07:40:31;47.33;;;23.35;;
11189;SDS011;5651;50.926;4.718;2022-12-07T07:42:57;43.13;;;23.30;;
11189;SDS011;5651;50.926;4.718;2022-12-07T07:45:24;39.33;;;21.42;;
11189;SDS011;5651;50.926;4.718;2022-12-07T07:47:50;40.33;;;21.75;;
11189;SDS011;5651;50.926;4.718;2022-12-07T07:50:16;45.40;;;23.05;;
11189;SDS011;5651;50.926;4.718;2022-12-07T07:52:42;36.67;;;21.85;;
11189;SDS011;5651;50.926;4.718;2022-12-07T07:55:08;40.25;;;20.52;;
11189;SDS011;5651;50.926;4.718;2022-12-07T07:57:35;40.83;;;20.48;;
11189;SDS011;5651;50.926;4.718;2022-12-07T08:00:06;30.42;;;18.30;;
11189;SDS011;5651;50.926;4.718;2022-12-07T08:02:34;34.28;;;18.00;;
11189;SDS011;5651;50.926;4.718;2022-12-07T08:05:00;33.17;;;19.05;;
11189;SDS011;5651;50.926;4.718;2022-12-07T08:07:26;35.10;;;18.40;;
11189;SDS011;5651;50.926;4.718;2022-12-07T08:09:52;32.17;;;17.63;;
11189;SDS011;5651;50.926;4.718;2022-12-07T08:12:18;39.20;;;18.00;;
11189;SDS011;5651;50.926;4.718;2022-12-07T08:14:44;37.75;;;18.38;;
11189;SDS011;5651;50.926;4.718;2022-12-07T08:17:09;33.92;;;17.70;;
11189;SDS011;5651;50.926;4.718;2022-12-07T08:19:35;36.90;;;18.65;;
11189;SDS011;5651;50.926;4.718;2022-12-07T08:22:01;34.78;;;18.02;;
11189;SDS011;5651;50.926;4.718;2022-12-07T08:24:27;35.42;;;19.20;;
11189;SDS011;5651;50.926;4.718;2022-12-07T08:26:53;37.20;;;18.75;;
11189;SDS011;5651;50.926;4.718;2022-12-07T08:29:19;42.17;;;18.77;;
11189;SDS011;5651;50.926;4.718;2022-12-07T08:31:46;38.50;;;19.98;;
11189;SDS011;5651;50.926;4.718;2022-12-07T08:34:11;38.78;;;19.67;;
11189;SDS011;5651;50.926;4.718;2022-12-07T08:36:38;41.03;;;19.92;;
11189;SDS011;5651;50.926;4.718;2022-12-07T08:39:03;36.50;;;19.85;;
11189;SDS011;5651;50.926;4.718;2022-12-07T08:41:29;37.92;;;20.90;;
11189;SDS011;5651;50.926;4.718;2022-12-07T08:43:55;38.45;;;20.20;;
11189;SDS011;5651;50.926;4.718;2022-12-07T08:46:22;39.88;;;20.55;;
11189;SDS011;5651;50.926;4.718;2022-12-07T08:51:29;48.85;;;24.45;;
11189;SDS011;5651;50.926;4.718;2022-12-07T08:53:55;46.97;;;25.73;;
11189;SDS011;5651;50.926;4.718;2022-12-07T08:56:24;51.08;;;26.15;;
11189;SDS011;5651;50.926;4.718;2022-12-07T08:58:50;50.60;;;28.10;;
11189;SDS011;5651;50.926;4.718;2022-12-07T09:01:16;47.05;;;26.58;;
11189;SDS011;5651;50.926;4.718;2022-12-07T09:03:41;54.83;;;28.15;;
11189;SDS011;5651;50.926;4.718;2022-12-07T09:06:07;46.70;;;26.90;;
11189;SDS011;5651;50.926;4.718;2022-12-07T09:08:34;51.38;;;26.80;;
11189;SDS011;5651;50.926;4.718;2022-12-07T09:11:03;49.00;;;25.80;;
11189;SDS011;5651;50.926;4.718;2022-12-07T09:13:29;49.78;;;26.65;;
11189;SDS011;5651;50.926;4.718;2022-12-07T09:15:55;49.17;;;26.70;;
11189;SDS011;5651;50.926;4.718;2022-12-07T09:18:21;50.05;;;26.65;;
11189;SDS011;5651;50.926;4.718;2022-12-07T09:20:46;45.75;;;23.60;;
11189;SDS011;5651;50.926;4.718;2022-12-07T09:23:12;46.35;;;24.88;;
11189;SDS011;5651;50.926;4.718;2022-12-07T09:25:38;38.28;;;22.55;;
11189;SDS011;5651;50.926;4.718;2022-12-07T09:28:04;34.70;;;20.45;;
11189;SDS011;5651;50.926;4.718;2022-12-07T09:30:29;35.50;;;20.52;;
11189;SDS011;5651;50.926;4.718;2022-12-07T09:32:55;53.38;;;22.30;;
11189;SDS011;5651;50.926;4.718;2022-12-07T09:35:22;34.65;;;19.75;;
11189;SDS011;5651;50.926;4.718;2022-12-07T09:37:49;35.20;;;21.33;;
11189;SDS011;5651;50.926;4.718;2022-12-07T09:40:15;40.28;;;22.77;;
11189;SDS011;5651;50.926;4.718;2022-12-07T09:42:43;34.17;;;20.55;;
11189;SDS011;5651;50.926;4.718;2022-12-07T09:45:17;37.78;;;22.00;;
11189;SDS011;5651;50.926;4.718;2022-12-07T09:47:46;38.22;;;21.02;;
11189;SDS011;5651;50.926;4.718;2022-12-07T09:50:17;35.17;;;20.38;;
11189;SDS011;5651;50.926;4.718;2022-12-07T09:52:46;35.22;;;19.13;;
11189;SDS011;5651;50.926;4.718;2022-12-07T09:55:15;31.15;;;17.85;;
11189;SDS011;5651;50.926;4.718;2022-12-07T09:57:44;29.33;;;18.45;;
11189;SDS011;5651;50.926;4.718;2022-12-07T10:00:15;26.35;;;17.30;;
11189;SDS011;5651;50.926;4.718;2022-12-07T10:02:43;29.02;;;16.77;;
11189;SDS011;5651;50.926;4.718;2022-12-07T10:05:13;32.38;;;16.75;;
11189;SDS011;5651;50.926;4.718;2022-12-07T10:07:43;24.95;;;15.20;;
11189;SDS011;5651;50.926;4.718;2022-12-07T10:10:13;23.85;;;13.65;;
11189;SDS011;5651;50.926;4.718;2022-12-07T10:21:20;18.33;;;11.43;;
11189;SDS011;5651;50.926;4.718;2022-12-07T10:28:58;19.50;;;11.55;;
11189;SDS011;5651;50.926;4.718;2022-12-07T10:31:25;18.15;;;10.60;;
11189;SDS011;5651;50.926;4.718;2022-12-07T10:33:52;17.60;;;9.50;;
11189;SDS011;5651;50.926;4.718;2022-12-07T10:39:31;14.43;;;8.65;;
11189;SDS011;5651;50.926;4.718;2022-12-07T10:41:53;14.10;;;7.82;;
11189;SDS011;5651;50.926;4.718;2022-12-07T10:44:22;15.38;;;8.65;;
11189;SDS011;5651;50.926;4.718;2022-12-07T10:57:42;14.90;;;7.35;;
11189;SDS011;5651;50.926;4.718;2022-12-07T11:00:22;16.42;;;8.25;;
11189;SDS011;5651;50.926;4.718;2022-12-07T11:11:13;17.10;;;9.13;;
11189;SDS011;5651;50.926;4.718;2022-12-07T11:16:50;15.32;;;8.35;;
11189;SDS011;5651;50.926;4.718;2022-12-07T11:21:59;12.70;;;8.52;;
11189;SDS011;5651;50.926;4.718;2022-12-07T11:37:57;15.43;;;8.27;;
11189;SDS011;5651;50.926;4.718;2022-12-07T11:40:35;17.98;;;8.30;;
11189;SDS011;5651;50.926;4.718;2022-12-07T11:43:09;17.40;;;8.77;;
11189;SDS011;5651;50.926;4.718;2022-12-07T11:45:44;18.25;;;8.00;;
11189;SDS011;5651;50.926;4.718;2022-12-07T11:48:19;20.92;;;10.15;;
11189;SDS011;5651;50.926;4.718;2022-12-07T11:50:51;13.13;;;8.88;;
11189;SDS011;5651;50.926;4.718;2022-12-07T11:53:21;18.88;;;8.05;;
11189;SDS011;5651;50.926;4.718;2022-12-07T11:56:04;15.57;;;8.05;;
11189;SDS011;5651;50.926;4.718;2022-12-07T12:03:44;17.50;;;9.38;;
11189;SDS011;5651;50.926;4.718;2022-12-07T12:06:31;15.68;;;8.68;;
11189;SDS011;5651;50.926;4.718;2022-12-07T12:09:03;20.48;;;9.45;;
11189;SDS011;5651;50.926;4.718;2022-12-07T12:12:12;14.88;;;8.43;;
11189;SDS011;5651;50.926;4.718;2022-12-07T12:15:21;12.35;;;7.60;;
11189;SDS011;5651;50.926;4.718;2022-12-07T12:20:51;14.25;;;8.13;;
11189;SDS011;5651;50.926;4.718;2022-12-07T12:23:33;15.57;;;8.27;;
11189;SDS011;5651;50.926;4.718;2022-12-07T12:26:01;12.75;;;8.02;;
11189;SDS011;5651;50.926;4.718;2022-12-07T12:28:33;14.20;;;7.88;;
11189;SDS011;5651;50.926;4.718;2022-12-07T12:33:37;17.90;;;8.63;;
11189;SDS011;5651;50.926;4.718;2022-12-07T12:46:56;12.27;;;6.60;;
11189;SDS011;5651;50.926;4.718;2022-12-07T13:02:21;12.80;;;5.53;;
11189;SDS011;5651;50.926;4.718;2022-12-07T13:28:49;11.57;;;4.07;;
11189;SDS011;5651;50.926;4.718;2022-12-07T13:31:45;9.23;;;4.18;;
11189;SDS011;5651;50.926;4.718;2022-12-07T13:34:34;7.30;;;3.28;;
11189;SDS011;5651;50.926;4.718;2022-12-07T13:37:01;9.65;;;4.15;;
11189;SDS011;5651;50.926;4.718;2022-12-07T13:39:32;11.77;;;3.72;;
11189;SDS011;5651;50.926;4.718;2022-12-07T13:42:06;9.50;;;4.43;;
11189;SDS011;5651;50.926;4.718;2022-12-07T13:44:40;9.50;;;4.60;;
11189;SDS011;5651;50.926;4.718;2022-12-07T13:47:12;10.43;;;4.80;;
11189;SDS011;5651;50.926;4.718;2022-12-07T13:49:53;8.80;;;5.38;;
11189;SDS011;5651;50.926;4.718;2022-12-07T13:52:24;12.30;;;5.47;;
11189;SDS011;5651;50.926;4.718;2022-12-07T13:54:58;13.43;;;5.68;;
11189;SDS011;5651;50.926;4.718;2022-12-07T13:57:26;11.57;;;5.78;;
11189;SDS011;5651;50.926;4.718;2022-12-07T13:59:54;10.48;;;5.47;;
11189;SDS011;5651;50.926;4.718;2022-12-07T14:02:22;10.93;;;5.05;;
11189;SDS011;5651;50.926;4.718;2022-12-07T14:04:50;9.77;;;4.25;;
11189;SDS011;5651;50.926;4.718;2022-12-07T14:09:56;6.07;;;3.33;;
11189;SDS011;5651;50.926;4.718;2022-12-07T14:12:27;6.03;;;3.45;;
11189;SDS011;5651;50.926;4.718;2022-12-07T14:14:54;7.82;;;3.15;;
11189;SDS011;5651;50.926;4.718;2022-12-07T14:17:22;8.52;;;3.45;;
11189;SDS011;5651;50.926;4.718;2022-12-07T14:19:51;7.85;;;3.08;;
11189;SDS011;5651;50.926;4.718;2022-12-07T14:22:29;6.63;;;3.20;;
11189;SDS011;5651;50.926;4.718;2022-12-07T14:27:38;7.35;;;2.90;;
11189;SDS011;5651;50.926;4.718;2022-12-07T14:30:05;8.95;;;3.63;;
11189;SDS011;5651;50.926;4.718;2022-12-07T14:32:31;6.43;;;2.97;;
11189;SDS011;5651;50.926;4.718;2022-12-07T14:37:28;5.32;;;3.22;;
11189;SDS011;5651;50.926;4.718;2022-12-07T14:39:55;2.97;;;2.08;;
11189;SDS011;5651;50.926;4.718;2022-12-07T14:42:21;4.70;;;2.63;;
11189;SDS011;5651;50.926;4.718;2022-12-07T14:44:49;3.28;;;2.47;;
11189;SDS011;5651;50.926;4.718;2022-12-07T14:47:15;4.68;;;2.38;;
11189;SDS011;5651;50.926;4.718;2022-12-07T14:49:41;6.28;;;2.47;;
11189;SDS011;5651;50.926;4.718;2022-12-07T14:52:09;5.35;;;2.92;;
11189;SDS011;5651;50.926;4.718;2022-12-07T14:54:41;5.53;;;2.92;;
11189;SDS011;5651;50.926;4.718;2022-12-07T14:57:08;5.30;;;2.90;;
11189;SDS011;5651;50.926;4.718;2022-12-07T14:59:35;8.18;;;3.50;;
11189;SDS011;5651;50.926;4.718;2022-12-07T15:02:01;9.43;;;3.95;;
11189;SDS011;5651;50.926;4.718;2022-12-07T15:04:26;13.63;;;4.65;;
11189;SDS011;5651;50.926;4.718;2022-12-07T15:06:59;6.65;;;3.67;;
11189;SDS011;5651;50.926;4.718;2022-12-07T15:09:26;8.10;;;4.72;;
11189;SDS011;5651;50.926;4.718;2022-12-07T15:11:52;9.25;;;5.53;;
11189;SDS011;5651;50.926;4.718;2022-12-07T15:14:18;10.43;;;5.40;;
11189;SDS011;5651;50.926;4.718;2022-12-07T15:16:43;74.10;;;30.73;;
11189;SDS011;5651;50.926;4.718;2022-12-07T15:19:18;40.17;;;23.23;;
11189;SDS011;5651;50.926;4.718;2022-12-07T15:21:48;16.13;;;9.15;;
11189;SDS011;5651;50.926;4.718;2022-12-07T15:24:14;15.68;;;9.25;;
11189;SDS011;5651;50.926;4.718;2022-12-07T15:26:40;10.27;;;5.93;;
11189;SDS011;5651;50.926;4.718;2022-12-07T15:29:06;13.05;;;7.20;;
11189;SDS011;5651;50.926;4.718;2022-12-07T15:31:33;11.02;;;6.35;;
11189;SDS011;5651;50.926;4.718;2022-12-07T15:33:59;12.20;;;6.82;;
11189;SDS011;5651;50.926;4.718;2022-12-07T15:36:26;13.52;;;6.47;;
11189;SDS011;5651;50.926;4.718;2022-12-07T15:38:53;8.45;;;5.82;;
11189;SDS011;5651;50.926;4.718;2022-12-07T15:41:20;13.05;;;6.18;;
11189;SDS011;5651;50.926;4.718;2022-12-07T15:43:46;9.88;;;6.13;;
11189;SDS011;5651;50.926;4.718;2022-12-07T15:46:34;13.05;;;6.85;;
11189;SDS011;5651;50.926;4.718;2022-12-07T15:49:03;10.00;;;7.10;;
11189;SDS011;5651;50.926;4.718;2022-12-07T15:51:31;9.80;;;6.53;;
11189;SDS011;5651;50.926;4.718;2022-12-07T15:53:57;12.90;;;7.47;;
11189;SDS011;5651;50.926;4.718;2022-12-07T15:56:23;12.02;;;7.40;;
11189;SDS011;5651;50.926;4.718;2022-12-07T15:58:49;10.40;;;7.82;;
11189;SDS011;5651;50.926;4.718;2022-12-07T16:01:16;10.88;;;7.40;;
11189;SDS011;5651;50.926;4.718;2022-12-07T16:03:44;10.52;;;7.20;;
11189;SDS011;5651;50.926;4.718;2022-12-07T16:06:11;12.90;;;8.18;;
11189;SDS011;5651;50.926;4.718;2022-12-07T16:08:40;12.18;;;6.95;;
11189;SDS011;5651;50.926;4.718;2022-12-07T16:11:07;10.93;;;7.13;;
11189;SDS011;5651;50.926;4.718;2022-12-07T16:13:33;12.85;;;7.15;;
11189;SDS011;5651;50.926;4.718;2022-12-07T16:16:06;12.52;;;7.13;;
11189;SDS011;5651;50.926;4.718;2022-12-07T16:18:35;11.73;;;6.95;;
11189;SDS011;5651;50.926;4.718;2022-12-07T16:21:00;10.88;;;7.07;;
11189;SDS011;5651;50.926;4.718;2022-12-07T16:23:26;10.32;;;6.50;;
11189;SDS011;5651;50.926;4.718;2022-12-07T16:25:52;13.90;;;7.55;;
11189;SDS011;5651;50.926;4.718;2022-12-07T16:28:19;14.55;;;7.72;;
11189;SDS011;5651;50.926;4.718;2022-12-07T16:30:44;12.43;;;7.93;;
11189;SDS011;5651;50.926;4.718;2022-12-07T16:33:10;15.48;;;8.02;;
11189;SDS011;5651;50.926;4.718;2022-12-07T16:35:39;14.32;;;7.90;;
11189;SDS011;5651;50.926;4.718;2022-12-07T16:38:06;15.07;;;7.60;;
11189;SDS011;5651;50.926;4.718;2022-12-07T16:40:32;13.02;;;7.30;;
11189;SDS011;5651;50.926;4.718;2022-12-07T16:42:58;13.88;;;8.48;;
11189;SDS011;5651;50.926;4.718;2022-12-07T16:45:24;14.57;;;8.90;;
11189;SDS011;5651;50.926;4.718;2022-12-07T16:47:50;14.40;;;7.00;;
11189;SDS011;5651;50.926;4.718;2022-12-07T16:50:16;11.80;;;6.22;;
11189;SDS011;5651;50.926;4.718;2022-12-07T16:52:42;13.82;;;6.38;;
11189;SDS011;5651;50.926;4.718;2022-12-07T16:55:07;11.32;;;5.80;;
11189;SDS011;5651;50.926;4.718;2022-12-07T16:57:33;10.95;;;6.00;;
11189;SDS011;5651;50.926;4.718;2022-12-07T16:59:59;13.38;;;5.88;;
11189;SDS011;5651;50.926;4.718;2022-12-07T17:02:24;12.07;;;5.43;;
11189;SDS011;5651;50.926;4.718;2022-12-07T17:04:50;14.02;;;5.70;;
11189;SDS011;5651;50.926;4.718;2022-12-07T17:07:16;12.43;;;5.25;;
11189;SDS011;5651;50.926;4.718;2022-12-07T17:09:42;10.57;;;5.80;;
11189;SDS011;5651;50.926;4.718;2022-12-07T17:12:08;10.50;;;5.68;;
11189;SDS011;5651;50.926;4.718;2022-12-07T17:14:33;11.35;;;5.75;;
11189;SDS011;5651;50.926;4.718;2022-12-07T17:17:18;15.15;;;6.53;;
11189;SDS011;5651;50.926;4.718;2022-12-07T17:19:44;12.30;;;5.55;;
11189;SDS011;5651;50.926;4.718;2022-12-07T17:22:10;11.73;;;5.95;;
11189;SDS011;5651;50.926;4.718;2022-12-07T17:24:38;11.80;;;5.55;;